sensor_id;sensor_type;location;lat;lon;timestamp;pressure;altitude;pressure_sealevel;temperature;humidity
55538;BME280;41383;51.418;7.286;2023-04-10T00:01:37;100493.09;;;9.10;57.25
55538;BME280;41383;51.418;7.286;2023-04-10T00:04:03;100497.56;;;9.16;57.15
55538;BME280;41383;51.418;7.286;2023-04-10T00:06:29;100495.34;;;9.13;56.97
55538;BME280;41383;51.418;7.286;2023-04-10T00:08:56;100495.09;;;9.27;56.72
55538;BME280;41383;51.418;7.286;2023-04-10T00:11:21;100484.66;;;9.23;56.40
55538;BME280;41383;51.418;7.286;2023-04-10T00:13:47;100489.91;;;9.13;57.01
55538;BME280;41383;51.418;7.286;2023-04-10T00:16:12;100481.16;;;9.11;56.97
55538;BME280;41383;51.418;7.286;2023-04-10T00:18:37;100474.97;;;9.16;56.86
55538;BME280;41383;51.418;7.286;2023-04-10T00:21:02;100478.28;;;9.18;56.89
55538;BME280;41383;51.418;7.286;2023-04-10T00:23:28;100467.78;;;8.97;57.84
55538;BME280;41383;51.418;7.286;2023-04-10T00:25:56;100470.72;;;9.08;57.50
55538;BME280;41383;51.418;7.286;2023-04-10T00:28:21;100472.25;;;9.16;57.15
55538;BME280;41383;51.418;7.286;2023-04-10T00:30:46;100470.38;;;9.04;57.49
55538;BME280;41383;51.418;7.286;2023-04-10T00:33:11;100457.47;;;9.11;57.18
55538;BME280;41383;51.418;7.286;2023-04-10T00:35:37;100465.41;;;9.25;56.94
55538;BME280;41383;51.418;7.286;2023-04-10T00:38:02;100454.72;;;9.23;57.33
55538;BME280;41383;51.418;7.286;2023-04-10T00:40:27;100455.09;;;9.27;56.63
55538;BME280;41383;51.418;7.286;2023-04-10T00:42:54;100455.59;;;9.12;56.93
55538;BME280;41383;51.418;7.286;2023-04-10T00:45:19;100451.56;;;9.15;56.96
55538;BME280;41383;51.418;7.286;2023-04-10T00:47:45;100444.81;;;9.05;57.46
55538;BME280;41383;51.418;7.286;2023-04-10T00:50:10;100439.97;;;8.95;56.89
55538;BME280;41383;51.418;7.286;2023-04-10T00:52:36;100444.97;;;8.86;57.92
55538;BME280;41383;51.418;7.286;2023-04-10T00:55:01;100443.03;;;8.99;57.98
55538;BME280;41383;51.418;7.286;2023-04-10T00:57:27;100444.13;;;9.10;57.34
55538;BME280;41383;51.418;7.286;2023-04-10T00:59:53;100438.41;;;9.23;56.50
55538;BME280;41383;51.418;7.286;2023-04-10T01:02:18;100439.00;;;9.26;57.17
55538;BME280;41383;51.418;7.286;2023-04-10T01:04:44;100432.25;;;9.28;56.50
55538;BME280;41383;51.418;7.286;2023-04-10T01:10:34;100439.22;;;9.36;56.45
55538;BME280;41383;51.418;7.286;2023-04-10T01:13:10;100431.38;;;9.52;56.13
55538;BME280;41383;51.418;7.286;2023-04-10T01:15:41;100419.66;;;9.51;55.95
55538;BME280;41383;51.418;7.286;2023-04-10T01:18:14;100421.84;;;9.37;56.08
55538;BME280;41383;51.418;7.286;2023-04-10T01:20:40;100428.91;;;9.38;55.91
55538;BME280;41383;51.418;7.286;2023-04-10T01:26:05;100423.38;;;9.33;56.02
55538;BME280;41383;51.418;7.286;2023-04-10T01:28:58;100427.38;;;9.42;55.36
55538;BME280;41383;51.418;7.286;2023-04-10T01:31:41;100430.31;;;9.53;54.98
55538;BME280;41383;51.418;7.286;2023-04-10T01:34:16;100429.59;;;9.57;55.47
55538;BME280;41383;51.418;7.286;2023-04-10T01:36:48;100428.50;;;9.58;55.19
55538;BME280;41383;51.418;7.286;2023-04-10T01:39:18;100419.75;;;9.56;55.12
55538;BME280;41383;51.418;7.286;2023-04-10T01:41:45;100409.84;;;9.50;55.23
55538;BME280;41383;51.418;7.286;2023-04-10T01:44:13;100408.91;;;9.44;55.45
55538;BME280;41383;51.418;7.286;2023-04-10T01:46:41;100400.91;;;9.26;55.29
55538;BME280;41383;51.418;7.286;2023-04-10T01:49:08;100391.19;;;9.30;55.51
55538;BME280;41383;51.418;7.286;2023-04-10T01:51:33;100394.19;;;9.16;56.11
55538;BME280;41383;51.418;7.286;2023-04-10T01:54:00;100391.56;;;9.21;55.99
55538;BME280;41383;51.418;7.286;2023-04-10T01:56:27;100389.81;;;9.27;55.84
55538;BME280;41383;51.418;7.286;2023-04-10T01:58:53;100387.78;;;9.22;55.35
55538;BME280;41383;51.418;7.286;2023-04-10T02:01:19;100389.19;;;9.37;55.37
55538;BME280;41383;51.418;7.286;2023-04-10T02:03:46;100389.66;;;9.34;55.20
55538;BME280;41383;51.418;7.286;2023-04-10T02:06:27;100381.59;;;9.39;55.12
55538;BME280;41383;51.418;7.286;2023-04-10T02:08:57;100380.53;;;9.40;55.10
55538;BME280;41383;51.418;7.286;2023-04-10T02:11:50;100383.63;;;9.32;54.72
55538;BME280;41383;51.418;7.286;2023-04-10T02:14:19;100391.91;;;9.37;55.54
55538;BME280;41383;51.418;7.286;2023-04-10T02:16:45;100383.81;;;9.42;55.41
55538;BME280;41383;51.418;7.286;2023-04-10T02:19:12;100376.84;;;9.46;54.77
55538;BME280;41383;51.418;7.286;2023-04-10T02:21:38;100377.53;;;9.54;54.77
55538;BME280;41383;51.418;7.286;2023-04-10T02:24:06;100385.00;;;9.46;54.55
55538;BME280;41383;51.418;7.286;2023-04-10T02:26:48;100385.97;;;9.40;54.70
55538;BME280;41383;51.418;7.286;2023-04-10T02:29:13;100379.81;;;9.45;54.92
55538;BME280;41383;51.418;7.286;2023-04-10T02:31:40;100373.06;;;9.48;54.60
55538;BME280;41383;51.418;7.286;2023-04-10T02:34:05;100369.16;;;9.43;55.03
55538;BME280;41383;51.418;7.286;2023-04-10T02:36:31;100371.38;;;9.46;54.67
55538;BME280;41383;51.418;7.286;2023-04-10T02:38:56;100366.06;;;9.40;54.71
55538;BME280;41383;51.418;7.286;2023-04-10T02:41:22;100360.88;;;9.38;54.87
55538;BME280;41383;51.418;7.286;2023-04-10T02:43:48;100358.63;;;9.47;54.77
55538;BME280;41383;51.418;7.286;2023-04-10T02:46:13;100361.97;;;9.37;54.54
55538;BME280;41383;51.418;7.286;2023-04-10T02:48:38;100364.22;;;9.28;54.89
55538;BME280;41383;51.418;7.286;2023-04-10T02:51:04;100362.72;;;9.20;55.41
55538;BME280;41383;51.418;7.286;2023-04-10T02:53:31;100363.41;;;9.28;54.87
55538;BME280;41383;51.418;7.286;2023-04-10T02:55:57;100364.94;;;9.23;55.09
55538;BME280;41383;51.418;7.286;2023-04-10T02:58:22;100374.53;;;9.26;54.60
55538;BME280;41383;51.418;7.286;2023-04-10T03:00:48;100372.16;;;9.30;54.80
55538;BME280;41383;51.418;7.286;2023-04-10T03:03:15;100362.63;;;9.44;54.96
55538;BME280;41383;51.418;7.286;2023-04-10T03:05:40;100364.41;;;9.51;54.74
55538;BME280;41383;51.418;7.286;2023-04-10T03:08:05;100359.22;;;9.66;53.99
55538;BME280;41383;51.418;7.286;2023-04-10T03:10:31;100364.59;;;9.61;54.14
55538;BME280;41383;51.418;7.286;2023-04-10T03:12:56;100359.34;;;9.42;55.10
55538;BME280;41383;51.418;7.286;2023-04-10T03:15:21;100357.97;;;9.57;54.30
55538;BME280;41383;51.418;7.286;2023-04-10T03:17:46;100351.94;;;9.55;54.46
55538;BME280;41383;51.418;7.286;2023-04-10T03:20:12;100349.16;;;9.67;54.46
55538;BME280;41383;51.418;7.286;2023-04-10T03:22:37;100351.38;;;9.53;54.49
55538;BME280;41383;51.418;7.286;2023-04-10T03:25:04;100347.22;;;9.50;54.85
55538;BME280;41383;51.418;7.286;2023-04-10T03:27:29;100342.28;;;9.47;54.42
55538;BME280;41383;51.418;7.286;2023-04-10T03:29:56;100340.47;;;9.53;54.53
55538;BME280;41383;51.418;7.286;2023-04-10T03:32:21;100334.44;;;9.51;54.27
55538;BME280;41383;51.418;7.286;2023-04-10T03:34:46;100337.75;;;9.53;54.24
55538;BME280;41383;51.418;7.286;2023-04-10T03:37:12;100331.19;;;9.66;53.76
55538;BME280;41383;51.418;7.286;2023-04-10T03:39:37;100324.72;;;9.55;53.60
55538;BME280;41383;51.418;7.286;2023-04-10T03:42:02;100320.38;;;9.54;54.03
55538;BME280;41383;51.418;7.286;2023-04-10T03:44:28;100330.84;;;9.62;54.14
55538;BME280;41383;51.418;7.286;2023-04-10T03:46:53;100319.88;;;9.57;53.84
55538;BME280;41383;51.418;7.286;2023-04-10T03:49:18;100311.44;;;9.58;54.19
55538;BME280;41383;51.418;7.286;2023-04-10T03:51:43;100314.03;;;9.65;53.71
55538;BME280;41383;51.418;7.286;2023-04-10T03:54:08;100310.88;;;9.56;53.93
55538;BME280;41383;51.418;7.286;2023-04-10T03:56:34;100317.25;;;9.33;54.39
55538;BME280;41383;51.418;7.286;2023-04-10T03:59:00;100310.00;;;9.39;54.59
55538;BME280;41383;51.418;7.286;2023-04-10T04:01:25;100314.63;;;9.38;54.24
55538;BME280;41383;51.418;7.286;2023-04-10T04:03:50;100308.91;;;9.52;54.24
55538;BME280;41383;51.418;7.286;2023-04-10T04:06:15;100307.56;;;9.54;54.43
55538;BME280;41383;51.418;7.286;2023-04-10T04:08:41;100308.72;;;9.41;54.17
55538;BME280;41383;51.418;7.286;2023-04-10T04:11:06;100312.72;;;9.39;54.42
55538;BME280;41383;51.418;7.286;2023-04-10T04:13:31;100309.94;;;9.33;54.52
55538;BME280;41383;51.418;7.286;2023-04-10T04:15:56;100306.38;;;9.33;54.61
55538;BME280;41383;51.418;7.286;2023-04-10T04:18:22;100313.50;;;9.22;55.32
55538;BME280;41383;51.418;7.286;2023-04-10T04:20:47;100300.59;;;9.29;54.87
55538;BME280;41383;51.418;7.286;2023-04-10T04:23:12;100310.78;;;9.22;54.94
55538;BME280;41383;51.418;7.286;2023-04-10T04:25:37;100306.56;;;9.14;54.55
55538;BME280;41383;51.418;7.286;2023-04-10T04:28:03;100305.75;;;9.02;54.90
55538;BME280;41383;51.418;7.286;2023-04-10T04:30:28;100296.53;;;9.03;55.24
55538;BME280;41383;51.418;7.286;2023-04-10T04:32:53;100295.72;;;9.02;54.98
55538;BME280;41383;51.418;7.286;2023-04-10T04:35:19;100303.53;;;8.98;54.79
55538;BME280;41383;51.418;7.286;2023-04-10T04:37:44;100290.03;;;9.04;55.51
55538;BME280;41383;51.418;7.286;2023-04-10T04:40:10;100290.19;;;8.97;55.52
55538;BME280;41383;51.418;7.286;2023-04-10T04:42:35;100282.56;;;9.11;55.57
55538;BME280;41383;51.418;7.286;2023-04-10T04:45:01;100279.25;;;9.09;55.13
55538;BME280;41383;51.418;7.286;2023-04-10T04:47:27;100281.72;;;9.10;54.94
55538;BME280;41383;51.418;7.286;2023-04-10T04:49:52;100281.63;;;9.05;54.93
55538;BME280;41383;51.418;7.286;2023-04-10T04:52:17;100281.97;;;9.09;54.83
55538;BME280;41383;51.418;7.286;2023-04-10T04:54:42;100282.66;;;9.16;54.62
55538;BME280;41383;51.418;7.286;2023-04-10T04:57:08;100276.81;;;9.25;54.43
55538;BME280;41383;51.418;7.286;2023-04-10T04:59:33;100282.47;;;9.35;54.31
55538;BME280;41383;51.418;7.286;2023-04-10T05:01:59;100278.53;;;9.43;53.95
55538;BME280;41383;51.418;7.286;2023-04-10T05:04:24;100276.06;;;9.41;53.70
55538;BME280;41383;51.418;7.286;2023-04-10T05:06:49;100271.09;;;9.38;54.16
55538;BME280;41383;51.418;7.286;2023-04-10T05:09:15;100275.06;;;9.48;54.41
55538;BME280;41383;51.418;7.286;2023-04-10T05:11:40;100275.81;;;9.60;54.91
55538;BME280;41383;51.418;7.286;2023-04-10T05:14:05;100277.16;;;9.57;55.52
55538;BME280;41383;51.418;7.286;2023-04-10T05:16:30;100272.94;;;9.50;55.15
55538;BME280;41383;51.418;7.286;2023-04-10T05:18:56;100276.25;;;9.52;55.81
55538;BME280;41383;51.418;7.286;2023-04-10T05:21:21;100274.50;;;9.45;56.19
55538;BME280;41383;51.418;7.286;2023-04-10T05:23:46;100270.44;;;9.48;55.75
55538;BME280;41383;51.418;7.286;2023-04-10T05:26:11;100277.53;;;9.49;54.97
55538;BME280;41383;51.418;7.286;2023-04-10T05:28:37;100275.06;;;9.48;54.98
55538;BME280;41383;51.418;7.286;2023-04-10T05:31:02;100284.22;;;9.41;54.35
55538;BME280;41383;51.418;7.286;2023-04-10T05:33:27;100283.47;;;9.46;54.78
55538;BME280;41383;51.418;7.286;2023-04-10T05:35:52;100281.63;;;9.34;54.07
55538;BME280;41383;51.418;7.286;2023-04-10T05:38:18;100291.47;;;9.53;53.13
55538;BME280;41383;51.418;7.286;2023-04-10T05:40:44;100290.06;;;9.50;53.21
55538;BME280;41383;51.418;7.286;2023-04-10T05:43:09;100284.97;;;9.54;52.97
55538;BME280;41383;51.418;7.286;2023-04-10T05:45:35;100295.94;;;9.59;52.63
55538;BME280;41383;51.418;7.286;2023-04-10T05:48:00;100288.94;;;9.63;52.64
55538;BME280;41383;51.418;7.286;2023-04-10T05:50:25;100296.84;;;9.48;52.09
55538;BME280;41383;51.418;7.286;2023-04-10T05:52:50;100282.72;;;9.51;52.59
55538;BME280;41383;51.418;7.286;2023-04-10T05:55:15;100291.22;;;9.54;53.02
55538;BME280;41383;51.418;7.286;2023-04-10T05:57:41;100281.69;;;9.69;52.31
55538;BME280;41383;51.418;7.286;2023-04-10T06:00:06;100281.69;;;9.52;52.58
55538;BME280;41383;51.418;7.286;2023-04-10T06:02:32;100278.84;;;9.46;52.40
55538;BME280;41383;51.418;7.286;2023-04-10T06:04:57;100275.47;;;9.56;53.17
55538;BME280;41383;51.418;7.286;2023-04-10T06:07:23;100272.09;;;9.66;52.07
55538;BME280;41383;51.418;7.286;2023-04-10T06:09:48;100274.94;;;9.72;52.59
55538;BME280;41383;51.418;7.286;2023-04-10T06:12:14;100273.38;;;9.76;52.39
55538;BME280;41383;51.418;7.286;2023-04-10T06:14:39;100281.34;;;9.83;52.09
55538;BME280;41383;51.418;7.286;2023-04-10T06:17:04;100279.47;;;9.83;52.52
55538;BME280;41383;51.418;7.286;2023-04-10T06:19:30;100267.41;;;9.79;51.46
55538;BME280;41383;51.418;7.286;2023-04-10T06:21:55;100275.44;;;9.86;52.08
55538;BME280;41383;51.418;7.286;2023-04-10T06:24:21;100265.44;;;9.91;51.83
55538;BME280;41383;51.418;7.286;2023-04-10T06:26:46;100269.97;;;10.03;51.75
55538;BME280;41383;51.418;7.286;2023-04-10T06:29:11;100274.00;;;10.18;51.76
55538;BME280;41383;51.418;7.286;2023-04-10T06:31:36;100263.69;;;10.20;52.00
55538;BME280;41383;51.418;7.286;2023-04-10T06:34:02;100263.09;;;10.18;51.59
55538;BME280;41383;51.418;7.286;2023-04-10T06:36:27;100259.66;;;10.05;51.37
55538;BME280;41383;51.418;7.286;2023-04-10T06:38:52;100258.75;;;10.16;52.09
55538;BME280;41383;51.418;7.286;2023-04-10T06:41:17;100260.91;;;10.14;51.65
55538;BME280;41383;51.418;7.286;2023-04-10T06:43:43;100246.69;;;10.12;51.66
55538;BME280;41383;51.418;7.286;2023-04-10T06:46:10;100255.75;;;10.01;52.07
55538;BME280;41383;51.418;7.286;2023-04-10T06:48:35;100251.00;;;10.08;51.61
55538;BME280;41383;51.418;7.286;2023-04-10T06:51:00;100241.88;;;10.20;51.77
55538;BME280;41383;51.418;7.286;2023-04-10T06:53:26;100249.47;;;10.18;51.32
55538;BME280;41383;51.418;7.286;2023-04-10T06:55:51;100256.16;;;10.27;51.22
55538;BME280;41383;51.418;7.286;2023-04-10T06:58:16;100254.97;;;10.40;51.08
55538;BME280;41383;51.418;7.286;2023-04-10T07:00:42;100267.34;;;10.48;51.04
55538;BME280;41383;51.418;7.286;2023-04-10T07:03:07;100266.44;;;10.59;50.78
55538;BME280;41383;51.418;7.286;2023-04-10T07:05:32;100270.88;;;10.66;50.46
55538;BME280;41383;51.418;7.286;2023-04-10T07:07:57;100257.69;;;10.57;50.27
55538;BME280;41383;51.418;7.286;2023-04-10T07:10:23;100262.06;;;10.58;50.38
55538;BME280;41383;51.418;7.286;2023-04-10T07:12:48;100258.56;;;10.85;50.34
55538;BME280;41383;51.418;7.286;2023-04-10T07:15:14;100255.84;;;10.85;50.18
55538;BME280;41383;51.418;7.286;2023-04-10T07:17:40;100253.75;;;10.93;49.61
55538;BME280;41383;51.418;7.286;2023-04-10T07:20:05;100245.06;;;10.96;49.35
55538;BME280;41383;51.418;7.286;2023-04-10T07:22:31;100234.31;;;11.12;49.23
55538;BME280;41383;51.418;7.286;2023-04-10T07:24:56;100224.13;;;11.02;48.83
55538;BME280;41383;51.418;7.286;2023-04-10T07:27:23;100224.59;;;10.98;48.28
55538;BME280;41383;51.418;7.286;2023-04-10T07:29:49;100211.06;;;11.09;48.60
55538;BME280;41383;51.418;7.286;2023-04-10T07:32:14;100200.47;;;11.13;48.48
55538;BME280;41383;51.418;7.286;2023-04-10T07:34:39;100203.75;;;11.15;48.21
55538;BME280;41383;51.418;7.286;2023-04-10T07:37:06;100216.66;;;11.19;47.72
55538;BME280;41383;51.418;7.286;2023-04-10T07:39:31;100201.03;;;11.15;47.70
55538;BME280;41383;51.418;7.286;2023-04-10T07:41:56;100208.16;;;11.16;46.98
55538;BME280;41383;51.418;7.286;2023-04-10T07:44:21;100202.44;;;11.17;46.63
55538;BME280;41383;51.418;7.286;2023-04-10T07:46:47;100208.03;;;11.33;47.08
55538;BME280;41383;51.418;7.286;2023-04-10T07:49:12;100204.09;;;11.51;46.95
55538;BME280;41383;51.418;7.286;2023-04-10T07:51:37;100201.84;;;11.43;46.90
55538;BME280;41383;51.418;7.286;2023-04-10T07:54:03;100193.22;;;11.56;46.99
55538;BME280;41383;51.418;7.286;2023-04-10T07:56:28;100166.78;;;11.62;46.62
55538;BME280;41383;51.418;7.286;2023-04-10T07:58:58;100183.69;;;11.59;45.96
55538;BME280;41383;51.418;7.286;2023-04-10T08:01:23;100177.06;;;11.50;45.88
55538;BME280;41383;51.418;7.286;2023-04-10T08:03:48;100175.16;;;11.50;46.08
55538;BME280;41383;51.418;7.286;2023-04-10T08:06:14;100181.13;;;11.47;45.71
55538;BME280;41383;51.418;7.286;2023-04-10T08:08:40;100183.84;;;11.47;46.01
55538;BME280;41383;51.418;7.286;2023-04-10T08:11:20;100172.69;;;11.49;45.47
55538;BME280;41383;51.418;7.286;2023-04-10T08:13:47;100164.72;;;11.42;45.86
55538;BME280;41383;51.418;7.286;2023-04-10T08:16:13;100166.09;;;11.44;45.43
55538;BME280;41383;51.418;7.286;2023-04-10T08:18:38;100162.00;;;11.47;45.20
55538;BME280;41383;51.418;7.286;2023-04-10T08:21:03;100162.34;;;11.56;45.56
55538;BME280;41383;51.418;7.286;2023-04-10T08:23:28;100160.53;;;11.67;45.83
55538;BME280;41383;51.418;7.286;2023-04-10T08:25:54;100149.34;;;11.74;45.70
55538;BME280;41383;51.418;7.286;2023-04-10T08:28:19;100150.75;;;11.76;44.66
55538;BME280;41383;51.418;7.286;2023-04-10T08:30:45;100154.59;;;11.75;44.27
55538;BME280;41383;51.418;7.286;2023-04-10T08:33:10;100144.25;;;11.88;44.88
55538;BME280;41383;51.418;7.286;2023-04-10T08:35:35;100146.53;;;12.01;45.06
55538;BME280;41383;51.418;7.286;2023-04-10T08:38:01;100150.88;;;11.97;44.19
55538;BME280;41383;51.418;7.286;2023-04-10T08:40:26;100137.53;;;12.06;44.49
55538;BME280;41383;51.418;7.286;2023-04-10T08:42:51;100136.25;;;12.19;44.46
55538;BME280;41383;51.418;7.286;2023-04-10T08:45:16;100139.34;;;12.39;44.70
55538;BME280;41383;51.418;7.286;2023-04-10T08:47:42;100122.69;;;12.40;44.16
55538;BME280;41383;51.418;7.286;2023-04-10T08:50:10;100132.31;;;12.58;44.01
55538;BME280;41383;51.418;7.286;2023-04-10T08:52:42;100125.47;;;12.71;43.59
55538;BME280;41383;51.418;7.286;2023-04-10T08:55:08;100116.50;;;12.87;44.14
55538;BME280;41383;51.418;7.286;2023-04-10T08:57:35;100106.38;;;12.92;43.55
55538;BME280;41383;51.418;7.286;2023-04-10T09:00:02;100107.44;;;13.02;43.17
55538;BME280;41383;51.418;7.286;2023-04-10T09:02:27;100099.00;;;13.14;42.93
55538;BME280;41383;51.418;7.286;2023-04-10T09:04:53;100100.91;;;13.29;42.77
55538;BME280;41383;51.418;7.286;2023-04-10T09:07:20;100082.81;;;13.38;42.30
55538;BME280;41383;51.418;7.286;2023-04-10T09:09:47;100088.81;;;13.40;41.56
55538;BME280;41383;51.418;7.286;2023-04-10T09:12:12;100093.22;;;13.31;40.12
55538;BME280;41383;51.418;7.286;2023-04-10T09:14:39;100080.63;;;13.35;40.35
55538;BME280;41383;51.418;7.286;2023-04-10T09:17:23;100073.25;;;13.36;39.97
55538;BME280;41383;51.418;7.286;2023-04-10T09:19:54;100082.25;;;13.47;39.88
55538;BME280;41383;51.418;7.286;2023-04-10T09:22:33;100073.75;;;13.53;39.41
55538;BME280;41383;51.418;7.286;2023-04-10T09:25:00;100081.97;;;13.53;39.66
55538;BME280;41383;51.418;7.286;2023-04-10T09:27:35;100072.38;;;13.61;39.24
55538;BME280;41383;51.418;7.286;2023-04-10T09:30:05;100064.69;;;13.74;39.03
55538;BME280;41383;51.418;7.286;2023-04-10T09:35:04;100055.53;;;14.05;39.96
55538;BME280;41383;51.418;7.286;2023-04-10T09:37:34;100066.75;;;14.08;39.51
55538;BME280;41383;51.418;7.286;2023-04-10T09:40:00;100072.16;;;14.29;40.10
55538;BME280;41383;51.418;7.286;2023-04-10T09:42:34;100069.88;;;14.42;40.00
55538;BME280;41383;51.418;7.286;2023-04-10T09:45:01;100064.94;;;14.44;39.86
55538;BME280;41383;51.418;7.286;2023-04-10T09:47:27;100064.31;;;14.52;39.55
55538;BME280;41383;51.418;7.286;2023-04-10T09:49:55;100067.50;;;14.30;38.28
55538;BME280;41383;51.418;7.286;2023-04-10T09:52:26;100067.41;;;14.40;38.22
55538;BME280;41383;51.418;7.286;2023-04-10T09:54:53;100074.69;;;14.15;38.23
55538;BME280;41383;51.418;7.286;2023-04-10T09:57:19;100065.72;;;13.99;38.30
55538;BME280;41383;51.418;7.286;2023-04-10T09:59:52;100066.25;;;13.96;37.68
55538;BME280;41383;51.418;7.286;2023-04-10T10:02:19;100061.53;;;14.12;38.66
55538;BME280;41383;51.418;7.286;2023-04-10T10:04:45;100050.56;;;14.12;38.49
55538;BME280;41383;51.418;7.286;2023-04-10T10:07:16;100043.06;;;14.33;38.60
55538;BME280;41383;51.418;7.286;2023-04-10T10:09:44;100046.19;;;14.56;38.92
55538;BME280;41383;51.418;7.286;2023-04-10T10:12:10;100040.97;;;14.55;37.72
55538;BME280;41383;51.418;7.286;2023-04-10T10:14:44;100037.81;;;14.37;37.24
55538;BME280;41383;51.418;7.286;2023-04-10T10:17:17;100034.22;;;14.42;37.73
55538;BME280;41383;51.418;7.286;2023-04-10T10:19:53;100035.66;;;14.74;37.95
55538;BME280;41383;51.418;7.286;2023-04-10T10:22:20;100030.38;;;14.83;37.92
55538;BME280;41383;51.418;7.286;2023-04-10T10:24:47;100018.00;;;14.86;36.71
55538;BME280;41383;51.418;7.286;2023-04-10T10:27:13;100028.19;;;14.80;37.45
55538;BME280;41383;51.418;7.286;2023-04-10T10:29:40;100016.69;;;14.78;37.01
55538;BME280;41383;51.418;7.286;2023-04-10T10:32:08;100007.91;;;14.76;36.96
55538;BME280;41383;51.418;7.286;2023-04-10T10:34:35;100003.25;;;14.76;36.82
55538;BME280;41383;51.418;7.286;2023-04-10T10:37:01;100001.53;;;14.86;37.08
55538;BME280;41383;51.418;7.286;2023-04-10T10:39:58;99998.66;;;14.66;36.76
55538;BME280;41383;51.418;7.286;2023-04-10T10:42:35;100000.53;;;14.71;37.22
55538;BME280;41383;51.418;7.286;2023-04-10T10:45:12;99991.75;;;14.74;37.91
55538;BME280;41383;51.418;7.286;2023-04-10T10:47:51;99991.56;;;14.95;37.75
55538;BME280;41383;51.418;7.286;2023-04-10T10:50:18;99971.53;;;15.24;37.36
55538;BME280;41383;51.418;7.286;2023-04-10T10:52:48;99981.41;;;15.25;37.36
55538;BME280;41383;51.418;7.286;2023-04-10T10:58:00;99951.53;;;15.43;37.99
55538;BME280;41383;51.418;7.286;2023-04-10T11:08:17;99924.91;;;15.63;37.50
55538;BME280;41383;51.418;7.286;2023-04-10T11:11:24;99911.69;;;15.65;36.82
55538;BME280;41383;51.418;7.286;2023-04-10T11:16:16;99898.03;;;15.60;36.54
55538;BME280;41383;51.418;7.286;2023-04-10T11:29:00;99888.97;;;15.79;37.07
55538;BME280;41383;51.418;7.286;2023-04-10T11:31:26;99883.31;;;15.89;36.79
55538;BME280;41383;51.418;7.286;2023-04-10T11:34:01;99874.63;;;16.01;37.19
55538;BME280;41383;51.418;7.286;2023-04-10T11:36:27;99876.06;;;15.98;37.42
55538;BME280;41383;51.418;7.286;2023-04-10T11:38:54;99863.38;;;16.03;37.62
55538;BME280;41383;51.418;7.286;2023-04-10T11:41:20;99857.16;;;15.72;36.49
55538;BME280;41383;51.418;7.286;2023-04-10T11:43:50;99856.44;;;15.86;36.68
55538;BME280;41383;51.418;7.286;2023-04-10T11:46:15;99852.72;;;15.76;35.95
55538;BME280;41383;51.418;7.286;2023-04-10T11:48:41;99845.66;;;15.90;35.38
55538;BME280;41383;51.418;7.286;2023-04-10T11:51:10;99850.72;;;15.82;36.07
55538;BME280;41383;51.418;7.286;2023-04-10T11:53:36;99850.94;;;16.05;35.74
55538;BME280;41383;51.418;7.286;2023-04-10T11:56:02;99849.84;;;16.06;35.90
55538;BME280;41383;51.418;7.286;2023-04-10T11:58:29;99835.06;;;16.02;35.87
55538;BME280;41383;51.418;7.286;2023-04-10T12:01:04;99828.47;;;16.17;36.28
55538;BME280;41383;51.418;7.286;2023-04-10T12:03:34;99833.38;;;16.20;36.58
55538;BME280;41383;51.418;7.286;2023-04-10T12:06:00;99834.84;;;16.46;36.70
55538;BME280;41383;51.418;7.286;2023-04-10T12:08:32;99815.06;;;16.30;35.54
55538;BME280;41383;51.418;7.286;2023-04-10T12:10:59;99814.44;;;16.19;35.46
55538;BME280;41383;51.418;7.286;2023-04-10T12:13:25;99812.75;;;16.37;35.53
55538;BME280;41383;51.418;7.286;2023-04-10T12:15:51;99813.34;;;16.34;35.34
55538;BME280;41383;51.418;7.286;2023-04-10T12:18:17;99809.56;;;16.30;35.12
55538;BME280;41383;51.418;7.286;2023-04-10T12:20:43;99801.59;;;16.28;35.85
55538;BME280;41383;51.418;7.286;2023-04-10T12:23:09;99790.59;;;16.14;34.36
55538;BME280;41383;51.418;7.286;2023-04-10T12:25:35;99790.75;;;16.04;34.37
55538;BME280;41383;51.418;7.286;2023-04-10T12:28:00;99793.00;;;16.02;34.78
55538;BME280;41383;51.418;7.286;2023-04-10T12:30:26;99788.00;;;16.04;34.92
55538;BME280;41383;51.418;7.286;2023-04-10T12:32:51;99783.31;;;16.04;35.02
55538;BME280;41383;51.418;7.286;2023-04-10T12:35:19;99775.28;;;16.08;34.95
55538;BME280;41383;51.418;7.286;2023-04-10T12:37:49;99782.41;;;16.09;34.38
55538;BME280;41383;51.418;7.286;2023-04-10T12:40:15;99770.16;;;16.34;34.85
55538;BME280;41383;51.418;7.286;2023-04-10T12:42:41;99768.81;;;16.46;34.06
55538;BME280;41383;51.418;7.286;2023-04-10T12:45:07;99767.59;;;16.66;34.35
55538;BME280;41383;51.418;7.286;2023-04-10T12:47:43;99764.03;;;16.80;33.89
55538;BME280;41383;51.418;7.286;2023-04-10T12:50:12;99753.13;;;16.75;33.12
55538;BME280;41383;51.418;7.286;2023-04-10T12:52:40;99761.06;;;16.76;32.36
55538;BME280;41383;51.418;7.286;2023-04-10T12:55:14;99751.91;;;16.81;32.89
55538;BME280;41383;51.418;7.286;2023-04-10T12:57:40;99750.38;;;16.75;31.39
55538;BME280;41383;51.418;7.286;2023-04-10T13:00:07;99760.78;;;16.78;31.68
55538;BME280;41383;51.418;7.286;2023-04-10T13:02:35;99755.78;;;16.80;31.96
55538;BME280;41383;51.418;7.286;2023-04-10T13:05:00;99738.00;;;16.86;31.69
55538;BME280;41383;51.418;7.286;2023-04-10T13:07:26;99737.00;;;16.82;31.41
55538;BME280;41383;51.418;7.286;2023-04-10T13:09:51;99736.00;;;16.78;31.61
55538;BME280;41383;51.418;7.286;2023-04-10T13:12:16;99732.25;;;16.74;31.91
55538;BME280;41383;51.418;7.286;2023-04-10T13:14:41;99719.78;;;16.76;31.73
55538;BME280;41383;51.418;7.286;2023-04-10T13:17:07;99718.25;;;16.84;31.91
55538;BME280;41383;51.418;7.286;2023-04-10T13:19:32;99714.00;;;16.78;31.91
55538;BME280;41383;51.418;7.286;2023-04-10T13:21:57;99713.56;;;16.71;31.63
55538;BME280;41383;51.418;7.286;2023-04-10T13:24:25;99710.00;;;16.56;31.37
55538;BME280;41383;51.418;7.286;2023-04-10T13:26:50;99703.50;;;16.38;30.73
55538;BME280;41383;51.418;7.286;2023-04-10T13:29:15;99707.69;;;16.35;31.04